sensor_id;sensor_type;location;lat;lon;timestamp;pressure;altitude;pressure_sealevel;temperature;humidity
6196;BME280;3131;42.630;23.382;2022-12-11T07:27:42;92405.59;;;15.94;100.00
6196;BME280;3131;42.630;23.382;2022-12-11T07:30:15;92402.80;;;15.89;100.00
6196;BME280;3131;42.630;23.382;2022-12-11T07:32:47;92395.86;;;15.87;100.00
6196;BME280;3131;42.630;23.382;2022-12-11T07:38:06;92409.91;;;15.83;100.00
6196;BME280;3131;42.630;23.382;2022-12-11T07:40:41;92417.54;;;15.83;100.00
6196;BME280;3131;42.630;23.382;2022-12-11T07:43:13;92417.95;;;15.86;100.00
6196;BME280;3131;42.630;23.382;2022-12-11T07:45:46;92458.67;;;15.93;100.00
6196;BME280;3131;42.630;23.382;2022-12-11T07:48:16;92462.95;;;16.03;100.00
6196;BME280;3131;42.630;23.382;2022-12-11T07:53:29;92460.80;;;16.17;100.00
6196;BME280;3131;42.630;23.382;2022-12-11T07:56:02;92446.16;;;16.19;100.00
6196;BME280;3131;42.630;23.382;2022-12-11T07:58:34;92457.44;;;16.10;100.00
6196;BME280;3131;42.630;23.382;2022-12-11T08:03:59;92471.32;;;16.36;100.00
6196;BME280;3131;42.630;23.382;2022-12-11T08:06:36;92470.83;;;16.36;100.00
6196;BME280;3131;42.630;23.382;2022-12-11T08:09:10;92472.05;;;16.40;100.00
6196;BME280;3131;42.630;23.382;2022-12-11T08:11:41;92482.64;;;16.44;100.00
6196;BME280;3131;42.630;23.382;2022-12-11T08:16:51;92482.36;;;16.60;100.00
6196;BME280;3131;42.630;23.382;2022-12-11T08:19:20;92472.06;;;16.58;100.00
6196;BME280;3131;42.630;23.382;2022-12-11T08:21:49;92466.06;;;16.37;100.00
6196;BME280;3131;42.630;23.382;2022-12-11T08:24:18;92459.41;;;16.25;100.00
6196;BME280;3131;42.630;23.382;2022-12-11T08:26:48;92459.53;;;16.17;100.00
6196;BME280;3131;42.630;23.382;2022-12-11T08:31:56;92464.02;;;16.26;100.00
6196;BME280;3131;42.630;23.382;2022-12-11T08:34:25;92464.33;;;16.27;100.00
6196;BME280;3131;42.630;23.382;2022-12-11T08:36:55;92464.25;;;16.20;100.00
6196;BME280;3131;42.630;23.382;2022-12-11T08:39:25;92474.38;;;16.24;100.00
6196;BME280;3131;42.630;23.382;2022-12-11T08:41:54;92467.66;;;16.28;100.00
6196;BME280;3131;42.630;23.382;2022-12-11T08:47:04;92461.10;;;16.40;100.00
6196;BME280;3131;42.630;23.382;2022-12-11T08:49:33;92461.34;;;16.34;100.00
6196;BME280;3131;42.630;23.382;2022-12-11T08:52:03;92450.73;;;16.41;100.00
6196;BME280;3131;42.630;23.382;2022-12-11T08:57:18;92450.02;;;16.54;100.00
6196;BME280;3131;42.630;23.382;2022-12-11T08:59:48;92455.27;;;16.46;100.00
6196;BME280;3131;42.630;23.382;2022-12-11T09:02:17;92454.05;;;16.42;100.00
6196;BME280;3131;42.630;23.382;2022-12-11T09:04:46;92455.98;;;16.51;100.00
6196;BME280;3131;42.630;23.382;2022-12-11T09:07:16;92459.09;;;16.63;100.00
6196;BME280;3131;42.630;23.382;2022-12-11T09:09:45;92461.59;;;16.74;100.00
6196;BME280;3131;42.630;23.382;2022-12-11T09:12:14;92453.34;;;16.65;100.00
6196;BME280;3131;42.630;23.382;2022-12-11T09:14:44;92466.64;;;16.67;100.00
6196;BME280;3131;42.630;23.382;2022-12-11T09:17:13;92453.44;;;16.79;100.00
6196;BME280;3131;42.630;23.382;2022-12-11T09:19:43;92442.05;;;16.92;100.00
6196;BME280;3131;42.630;23.382;2022-12-11T09:22:12;92451.30;;;16.82;100.00
6196;BME280;3131;42.630;23.382;2022-12-11T09:24:41;92450.72;;;16.87;100.00
6196;BME280;3131;42.630;23.382;2022-12-11T09:27:11;92449.33;;;17.02;100.00
6196;BME280;3131;42.630;23.382;2022-12-11T09:32:19;92453.32;;;16.76;100.00
6196;BME280;3131;42.630;23.382;2022-12-11T09:34:51;92459.01;;;16.50;100.00
6196;BME280;3131;42.630;23.382;2022-12-11T09:37:20;92431.48;;;16.32;100.00
6196;BME280;3131;42.630;23.382;2022-12-11T09:39:49;92444.45;;;16.27;100.00
6196;BME280;3131;42.630;23.382;2022-12-11T09:42:22;92430.09;;;16.40;100.00
6196;BME280;3131;42.630;23.382;2022-12-11T09:44:52;92434.92;;;16.46;100.00
6196;BME280;3131;42.630;23.382;2022-12-11T09:47:25;92434.52;;;16.49;100.00
6196;BME280;3131;42.630;23.382;2022-12-11T09:50:01;92431.98;;;16.49;100.00
6196;BME280;3131;42.630;23.382;2022-12-11T09:52:32;92429.55;;;16.34;100.00
6196;BME280;3131;42.630;23.382;2022-12-11T09:55:09;92434.97;;;16.24;100.00
6196;BME280;3131;42.630;23.382;2022-12-11T09:57:41;92429.23;;;16.33;100.00
6196;BME280;3131;42.630;23.382;2022-12-11T10:00:17;92419.09;;;16.22;100.00
6196;BME280;3131;42.630;23.382;2022-12-11T10:03:01;92422.74;;;16.24;100.00
6196;BME280;3131;42.630;23.382;2022-12-11T10:05:34;92421.11;;;16.16;100.00
6196;BME280;3131;42.630;23.382;2022-12-11T10:08:07;92426.63;;;16.09;100.00
6196;BME280;3131;42.630;23.382;2022-12-11T10:10:40;92424.59;;;16.26;100.00
6196;BME280;3131;42.630;23.382;2022-12-11T10:13:15;92423.53;;;16.14;100.00
6196;BME280;3131;42.630;23.382;2022-12-11T10:18:28;92411.14;;;16.04;100.00
6196;BME280;3131;42.630;23.382;2022-12-11T10:21:00;92404.91;;;16.07;100.00
6196;BME280;3131;42.630;23.382;2022-12-11T10:23:33;92406.83;;;16.15;100.00
6196;BME280;3131;42.630;23.382;2022-12-11T10:26:06;92399.73;;;15.93;100.00
6196;BME280;3131;42.630;23.382;2022-12-11T10:28:36;92381.94;;;15.61;100.00
6196;BME280;3131;42.630;23.382;2022-12-11T10:33:51;92380.72;;;15.46;100.00
6196;BME280;3131;42.630;23.382;2022-12-11T10:36:26;92393.43;;;16.17;100.00
6196;BME280;3131;42.630;23.382;2022-12-11T10:38:56;92415.88;;;17.11;100.00
6196;BME280;3131;42.630;23.382;2022-12-11T10:44:16;92455.53;;;20.60;93.71
6196;BME280;3131;42.630;23.382;2022-12-11T10:46:47;92471.38;;;20.94;77.11
6196;BME280;3131;42.630;23.382;2022-12-11T10:49:24;92476.45;;;21.19;77.48
6196;BME280;3131;42.630;23.382;2022-12-11T10:54:36;92459.25;;;22.96;62.11
6196;BME280;3131;42.630;23.382;2022-12-11T10:57:08;92456.61;;;21.63;71.03
6196;BME280;3131;42.630;23.382;2022-12-11T10:59:39;92452.69;;;20.34;79.43
6196;BME280;3131;42.630;23.382;2022-12-11T11:04:57;92435.14;;;19.97;84.70
6196;BME280;3131;42.630;23.382;2022-12-11T11:07:28;92429.40;;;19.47;87.41
6196;BME280;3131;42.630;23.382;2022-12-11T11:12:59;92437.00;;;19.44;75.17
6196;BME280;3131;42.630;23.382;2022-12-11T11:18:15;92401.61;;;17.54;90.30
6196;BME280;3131;42.630;23.382;2022-12-11T11:23:25;92364.70;;;17.30;100.00
6196;BME280;3131;42.630;23.382;2022-12-11T11:25:57;92364.90;;;16.91;100.00
6196;BME280;3131;42.630;23.382;2022-12-11T11:31:15;92356.75;;;16.85;100.00
6196;BME280;3131;42.630;23.382;2022-12-11T11:36:32;92375.05;;;18.46;100.00
6196;BME280;3131;42.630;23.382;2022-12-11T11:42:01;92373.27;;;17.60;100.00
6196;BME280;3131;42.630;23.382;2022-12-11T11:44:34;92372.55;;;17.29;100.00
6196;BME280;3131;42.630;23.382;2022-12-11T11:49:48;92360.38;;;16.52;100.00
6196;BME280;3131;42.630;23.382;2022-12-11T11:55:05;92338.19;;;16.15;100.00
6196;BME280;3131;42.630;23.382;2022-12-11T12:00:23;92326.06;;;15.83;100.00
6196;BME280;3131;42.630;23.382;2022-12-11T12:05:44;92308.59;;;15.51;100.00
6196;BME280;3131;42.630;23.382;2022-12-11T12:08:19;92308.00;;;15.39;100.00
6196;BME280;3131;42.630;23.382;2022-12-11T12:10:50;92319.42;;;15.17;100.00
6196;BME280;3131;42.630;23.382;2022-12-11T12:13:24;92326.91;;;15.25;100.00
6196;BME280;3131;42.630;23.382;2022-12-11T12:18:37;92326.72;;;15.38;100.00
6196;BME280;3131;42.630;23.382;2022-12-11T12:21:09;92327.72;;;15.26;100.00
6196;BME280;3131;42.630;23.382;2022-12-11T12:26:27;92316.70;;;15.29;100.00
6196;BME280;3131;42.630;23.382;2022-12-11T12:29:03;92321.83;;;15.25;100.00
6196;BME280;3131;42.630;23.382;2022-12-11T12:34:49;92343.61;;;15.45;100.00
6196;BME280;3131;42.630;23.382;2022-12-11T12:37:24;92343.05;;;15.50;100.00
6196;BME280;3131;42.630;23.382;2022-12-11T12:42:36;92341.34;;;15.57;100.00
6196;BME280;3131;42.630;23.382;2022-12-11T12:47:57;92534.01;;;15.09;100.00
6196;BME280;3131;42.630;23.382;2022-12-11T12:53:11;92585.52;;;13.88;100.00
6196;BME280;3131;42.630;23.382;2022-12-11T12:55:41;92645.45;;;12.80;100.00
6196;BME280;3131;42.630;23.382;2022-12-11T12:58:26;92725.98;;;12.30;100.00
6196;BME280;3131;42.630;23.382;2022-12-11T13:03:55;92778.16;;;11.79;100.00
6196;BME280;3131;42.630;23.382;2022-12-11T13:06:33;92849.35;;;11.17;100.00
6196;BME280;3131;42.630;23.382;2022-12-11T13:09:15;92839.81;;;10.23;100.00
6196;BME280;3131;42.630;23.382;2022-12-11T13:11:46;92880.83;;;9.73;100.00
6196;BME280;3131;42.630;23.382;2022-12-11T13:20:17;92940.20;;;8.62;100.00
6196;BME280;3131;42.630;23.382;2022-12-11T13:25:48;93021.75;;;7.95;100.00
6196;BME280;3131;42.630;23.382;2022-12-11T13:34:19;93125.42;;;7.07;100.00
6196;BME280;3131;42.630;23.382;2022-12-11T13:36:49;93193.16;;;6.77;100.00
6196;BME280;3131;42.630;23.382;2022-12-11T13:39:21;93207.47;;;6.64;100.00
6196;BME280;3131;42.630;23.382;2022-12-11T13:41:53;93235.30;;;6.48;100.00
6196;BME280;3131;42.630;23.382;2022-12-11T13:44:27;93234.25;;;6.45;100.00
6196;BME280;3131;42.630;23.382;2022-12-11T13:49:41;93198.39;;;6.20;100.00
6196;BME280;3131;42.630;23.382;2022-12-11T13:52:17;93282.07;;;6.11;100.00
6196;BME280;3131;42.630;23.382;2022-12-11T13:54:49;93308.21;;;6.07;100.00
6196;BME280;3131;42.630;23.382;2022-12-11T14:00:00;93235.05;;;6.03;100.00
6196;BME280;3131;42.630;23.382;2022-12-11T14:05:11;93189.01;;;5.74;100.00
6196;BME280;3131;42.630;23.382;2022-12-11T14:07:45;93241.58;;;5.67;100.00
6196;BME280;3131;42.630;23.382;2022-12-11T14:10:16;93241.58;;;5.67;100.00
6196;BME280;3131;42.630;23.382;2022-12-11T14:15:30;93161.89;;;5.50;100.00
6196;BME280;3131;42.630;23.382;2022-12-11T14:18:00;93214.89;;;5.42;100.00
6196;BME280;3131;42.630;23.382;2022-12-11T14:20:31;93194.89;;;5.42;100.00
6196;BME280;3131;42.630;23.382;2022-12-11T14:23:14;93214.75;;;5.38;100.00
6196;BME280;3131;42.630;23.382;2022-12-11T14:25:38;93221.40;;;5.19;100.00
6196;BME280;3131;42.630;23.382;2022-12-11T14:28:15;93217.59;;;5.13;100.00
6196;BME280;3131;42.630;23.382;2022-12-11T14:30:48;93208.75;;;5.02;100.00
6196;BME280;3131;42.630;23.382;2022-12-11T14:35:57;93160.31;;;4.85;100.00
6196;BME280;3131;42.630;23.382;2022-12-11T14:38:29;93232.15;;;4.81;100.00
6196;BME280;3131;42.630;23.382;2022-12-11T14:41:02;93222.50;;;4.70;100.00
6196;BME280;3131;42.630;23.382;2022-12-11T14:43:34;93214.94;;;4.64;100.00
6196;BME280;3131;42.630;23.382;2022-12-11T14:46:06;93229.06;;;4.58;100.00
6196;BME280;3131;42.630;23.382;2022-12-11T14:51:19;93158.63;;;4.53;100.00
6196;BME280;3131;42.630;23.382;2022-12-11T14:53:50;93249.33;;;4.46;100.00
6196;BME280;3131;42.630;23.382;2022-12-11T14:56:22;93236.51;;;4.45;100.00
6196;BME280;3131;42.630;23.382;2022-12-11T15:01:38;93184.09;;;4.45;100.00
6196;BME280;3131;42.630;23.382;2022-12-11T15:06:56;93179.94;;;4.38;100.00
6196;BME280;3131;42.630;23.382;2022-12-11T15:09:28;93247.62;;;4.27;100.00
6196;BME280;3131;42.630;23.382;2022-12-11T15:12:11;93250.45;;;4.28;100.00
6196;BME280;3131;42.630;23.382;2022-12-11T15:14:29;93244.22;;;4.28;100.00
6196;BME280;3131;42.630;23.382;2022-12-11T15:17:00;93248.78;;;4.28;100.00
6196;BME280;3131;42.630;23.382;2022-12-11T15:19:31;93227.84;;;4.24;100.00
6196;BME280;3131;42.630;23.382;2022-12-11T15:22:03;93239.18;;;4.22;100.00
6196;BME280;3131;42.630;23.382;2022-12-11T15:24:37;93222.53;;;4.15;100.00
6196;BME280;3131;42.630;23.382;2022-12-11T15:27:15;93225.82;;;4.09;100.00
6196;BME280;3131;42.630;23.382;2022-12-11T15:29:44;93211.14;;;4.04;100.00
6196;BME280;3131;42.630;23.382;2022-12-11T15:34:57;93138.28;;;4.06;100.00
6196;BME280;3131;42.630;23.382;2022-12-11T15:37:27;93200.27;;;4.05;100.00
6196;BME280;3131;42.630;23.382;2022-12-11T15:39:58;93186.05;;;4.00;100.00
6196;BME280;3131;42.630;23.382;2022-12-11T15:42:31;93183.02;;;3.95;100.00
6196;BME280;3131;42.630;23.382;2022-12-11T15:45:01;93171.64;;;3.91;100.00
6196;BME280;3131;42.630;23.382;2022-12-11T15:47:31;93163.09;;;3.88;100.00
6196;BME280;3131;42.630;23.382;2022-12-11T15:50:09;93150.89;;;3.83;100.00
6196;BME280;3131;42.630;23.382;2022-12-11T15:52:33;93145.40;;;3.78;100.00
6196;BME280;3131;42.630;23.382;2022-12-11T15:55:02;93142.83;;;3.72;100.00
6196;BME280;3131;42.630;23.382;2022-12-11T15:57:32;93157.78;;;3.72;100.00
6196;BME280;3131;42.630;23.382;2022-12-11T16:00:02;93152.19;;;3.69;100.00
6196;BME280;3131;42.630;23.382;2022-12-11T16:02:33;93133.67;;;3.66;100.00
6196;BME280;3131;42.630;23.382;2022-12-11T16:05:02;93126.02;;;3.69;100.00
6196;BME280;3131;42.630;23.382;2022-12-11T16:07:32;93128.42;;;3.63;100.00
6196;BME280;3131;42.630;23.382;2022-12-11T16:10:01;93120.04;;;3.64;100.00
6196;BME280;3131;42.630;23.382;2022-12-11T16:12:31;93107.42;;;3.60;100.00
6196;BME280;3131;42.630;23.382;2022-12-11T16:15:01;93109.19;;;3.58;100.00
6196;BME280;3131;42.630;23.382;2022-12-11T16:17:31;93101.00;;;3.63;100.00
6196;BME280;3131;42.630;23.382;2022-12-11T16:20:00;93096.66;;;3.60;100.00
6196;BME280;3131;42.630;23.382;2022-12-11T16:22:29;93098.42;;;3.58;100.00
6196;BME280;3131;42.630;23.382;2022-12-11T16:24:59;93089.97;;;3.60;100.00
6196;BME280;3131;42.630;23.382;2022-12-11T16:27:28;93089.06;;;3.61;100.00
6196;BME280;3131;42.630;23.382;2022-12-11T16:29:57;93080.19;;;3.57;100.00
6196;BME280;3131;42.630;23.382;2022-12-11T16:35:06;93036.53;;;3.64;100.00
6196;BME280;3131;42.630;23.382;2022-12-11T16:37:36;93072.70;;;3.57;100.00
6196;BME280;3131;42.630;23.382;2022-12-11T16:40:07;93081.45;;;3.50;100.00
6196;BME280;3131;42.630;23.382;2022-12-11T16:42:37;93083.50;;;3.51;100.00
6196;BME280;3131;42.630;23.382;2022-12-11T16:45:11;93079.69;;;3.52;100.00
6196;BME280;3131;42.630;23.382;2022-12-11T16:47:40;93074.41;;;3.57;100.00
6196;BME280;3131;42.630;23.382;2022-12-11T16:50:11;93079.55;;;3.61;100.00
6196;BME280;3131;42.630;23.382;2022-12-11T16:52:42;93078.03;;;3.58;100.00
6196;BME280;3131;42.630;23.382;2022-12-11T16:55:13;93083.47;;;3.58;100.00
6196;BME280;3131;42.630;23.382;2022-12-11T16:57:43;93094.16;;;3.60;100.00
6196;BME280;3131;42.630;23.382;2022-12-11T17:00:15;93080.11;;;3.59;100.00
6196;BME280;3131;42.630;23.382;2022-12-11T17:02:44;93076.79;;;3.58;100.00
6196;BME280;3131;42.630;23.382;2022-12-11T17:05:15;93074.86;;;3.56;100.00
6196;BME280;3131;42.630;23.382;2022-12-11T17:07:44;93076.27;;;3.60;100.00
6196;BME280;3131;42.630;23.382;2022-12-11T17:10:14;93065.84;;;3.61;100.00
6196;BME280;3131;42.630;23.382;2022-12-11T17:12:43;93070.66;;;3.57;100.00
6196;BME280;3131;42.630;23.382;2022-12-11T17:15:13;93076.95;;;3.69;100.00
6196;BME280;3131;42.630;23.382;2022-12-11T17:17:42;93066.77;;;3.53;100.00
6196;BME280;3131;42.630;23.382;2022-12-11T17:20:12;93068.17;;;3.57;100.00
6196;BME280;3131;42.630;23.382;2022-12-11T17:22:41;93066.95;;;3.49;100.00
6196;BME280;3131;42.630;23.382;2022-12-11T17:25:10;93059.03;;;3.50;100.00
6196;BME280;3131;42.630;23.382;2022-12-11T17:27:41;93058.42;;;3.46;100.00
6196;BME280;3131;42.630;23.382;2022-12-11T17:30:13;93073.64;;;3.42;100.00
6196;BME280;3131;42.630;23.382;2022-12-11T17:35:21;93056.35;;;3.53;100.00
6196;BME280;3131;42.630;23.382;2022-12-11T17:37:51;93099.88;;;3.47;100.00
6196;BME280;3131;42.630;23.382;2022-12-11T17:40:20;93087.97;;;3.38;100.00
6196;BME280;3131;42.630;23.382;2022-12-11T17:42:50;93084.69;;;3.38;100.00
6196;BME280;3131;42.630;23.382;2022-12-11T17:48:03;93027.48;;;3.36;100.00
6196;BME280;3131;42.630;23.382;2022-12-11T17:53:14;93027.96;;;3.21;100.00
6196;BME280;3131;42.630;23.382;2022-12-11T17:58:32;93035.55;;;3.06;100.00
6196;BME280;3131;42.630;23.382;2022-12-11T18:03:45;93041.25;;;3.08;100.00
6196;BME280;3131;42.630;23.382;2022-12-11T18:06:15;93065.00;;;2.99;100.00
6196;BME280;3131;42.630;23.382;2022-12-11T18:08:45;93061.62;;;2.93;100.00
6196;BME280;3131;42.630;23.382;2022-12-11T18:11:16;93072.20;;;2.96;100.00
6196;BME280;3131;42.630;23.382;2022-12-11T18:13:47;93075.23;;;2.87;100.00
6196;BME280;3131;42.630;23.382;2022-12-11T18:16:19;93073.73;;;2.77;100.00
6196;BME280;3131;42.630;23.382;2022-12-11T18:18:49;93070.17;;;2.67;100.00
6196;BME280;3131;42.630;23.382;2022-12-11T18:21:21;93076.82;;;2.60;100.00
6196;BME280;3131;42.630;23.382;2022-12-11T18:23:51;93077.00;;;2.56;100.00
6196;BME280;3131;42.630;23.382;2022-12-11T18:26:21;93085.28;;;2.57;100.00
6196;BME280;3131;42.630;23.382;2022-12-11T18:28:51;93066.52;;;2.51;100.00
6196;BME280;3131;42.630;23.382;2022-12-11T18:31:22;93070.59;;;2.60;100.00
6196;BME280;3131;42.630;23.382;2022-12-11T18:33:51;93070.18;;;2.60;100.00
6196;BME280;3131;42.630;23.382;2022-12-11T18:36:21;93068.56;;;2.52;100.00
6196;BME280;3131;42.630;23.382;2022-12-11T18:41:31;93047.41;;;2.45;100.00
6196;BME280;3131;42.630;23.382;2022-12-11T18:46:41;93044.45;;;2.31;100.00
6196;BME280;3131;42.630;23.382;2022-12-11T18:51:50;93051.73;;;2.27;100.00
6196;BME280;3131;42.630;23.382;2022-12-11T18:57:00;93060.89;;;2.26;100.00
6196;BME280;3131;42.630;23.382;2022-12-11T19:02:10;93057.23;;;2.18;100.00
6196;BME280;3131;42.630;23.382;2022-12-11T19:04:40;93091.86;;;2.14;100.00
6196;BME280;3131;42.630;23.382;2022-12-11T19:09:49;93053.67;;;2.15;100.00
6196;BME280;3131;42.630;23.382;2022-12-11T19:12:18;93087.06;;;2.11;100.00
6196;BME280;3131;42.630;23.382;2022-12-11T19:14:48;93086.09;;;2.13;100.00
6196;BME280;3131;42.630;23.382;2022-12-11T19:20:02;93058.75;;;2.20;100.00
6196;BME280;3131;42.630;23.382;2022-12-11T19:25:19;93060.33;;;2.07;100.00
6196;BME280;3131;42.630;23.382;2022-12-11T19:27:48;93090.66;;;1.98;100.00
6196;BME280;3131;42.630;23.382;2022-12-11T19:32:59;93058.91;;;2.10;100.00
6196;BME280;3131;42.630;23.382;2022-12-11T19:38:11;93066.45;;;2.16;100.00
6196;BME280;3131;42.630;23.382;2022-12-11T19:43:22;93072.53;;;2.26;100.00
6196;BME280;3131;42.630;23.382;2022-12-11T19:48:31;93083.91;;;2.37;100.00
6196;BME280;3131;42.630;23.382;2022-12-11T19:53:49;93086.43;;;2.51;100.00
6196;BME280;3131;42.630;23.382;2022-12-11T19:59:01;93078.34;;;2.55;100.00
6196;BME280;3131;42.630;23.382;2022-12-11T20:04:19;93075.75;;;2.49;100.00
6196;BME280;3131;42.630;23.382;2022-12-11T20:09:35;93056.89;;;2.31;100.00
6196;BME280;3131;42.630;23.382;2022-12-11T20:12:06;93090.73;;;2.19;100.00
6196;BME280;3131;42.630;23.382;2022-12-11T20:14:37;93077.64;;;2.16;100.00
6196;BME280;3131;42.630;23.382;2022-12-11T20:25:16;93061.91;;;2.08;100.00
6196;BME280;3131;42.630;23.382;2022-12-11T20:30:27;93064.22;;;2.04;100.00
6196;BME280;3131;42.630;23.382;2022-12-11T20:32:57;93078.97;;;2.07;100.00
6196;BME280;3131;42.630;23.382;2022-12-11T20:38:06;93051.29;;;2.27;100.00
6196;BME280;3131;42.630;23.382;2022-12-11T20:43:22;93055.92;;;2.41;100.00
6196;BME280;3131;42.630;23.382;2022-12-11T20:45:51;93075.92;;;2.39;100.00
6196;BME280;3131;42.630;23.382;2022-12-11T20:51:02;93070.33;;;2.50;100.00
6196;BME280;3131;42.630;23.382;2022-12-11T20:53:32;93081.34;;;2.46;100.00
6196;BME280;3131;42.630;23.382;2022-12-11T20:56:05;93074.68;;;2.46;100.00
6196;BME280;3131;42.630;23.382;2022-12-11T20:58:34;93068.46;;;2.46;100.00
6196;BME280;3131;42.630;23.382;2022-12-11T21:01:04;93061.00;;;2.39;100.00
6196;BME280;3131;42.630;23.382;2022-12-11T21:03:34;93076.55;;;2.50;100.00
6196;BME280;3131;42.630;23.382;2022-12-11T21:06:03;93071.95;;;2.51;100.00
6196;BME280;3131;42.630;23.382;2022-12-11T21:11:19;93048.66;;;2.59;100.00
6196;BME280;3131;42.630;23.382;2022-12-11T21:16:29;93055.14;;;2.69;100.00
6196;BME280;3131;42.630;23.382;2022-12-11T21:18:59;93055.94;;;2.62;100.00
6196;BME280;3131;42.630;23.382;2022-12-11T21:24:15;93053.27;;;2.72;100.00
6196;BME280;3131;42.630;23.382;2022-12-11T21:26:45;93078.88;;;2.74;100.00
6196;BME280;3131;42.630;23.382;2022-12-11T21:29:15;93062.52;;;2.77;100.00
6196;BME280;3131;42.630;23.382;2022-12-11T21:31:45;93056.29;;;2.85;100.00
6196;BME280;3131;42.630;23.382;2022-12-11T21:34:14;93056.63;;;3.00;100.00
6196;BME280;3131;42.630;23.382;2022-12-11T21:36:44;93061.23;;;3.13;100.00
6196;BME280;3131;42.630;23.382;2022-12-11T21:42:00;93044.74;;;3.32;100.00
6196;BME280;3131;42.630;23.382;2022-12-11T21:44:30;93058.89;;;3.32;100.00
6196;BME280;3131;42.630;23.382;2022-12-11T21:46:59;93060.94;;;3.32;100.00
6196;BME280;3131;42.630;23.382;2022-12-11T21:52:07;93043.13;;;3.38;100.00
6196;BME280;3131;42.630;23.382;2022-12-11T21:54:36;93056.93;;;3.30;100.00
6196;BME280;3131;42.630;23.382;2022-12-11T21:57:06;93058.55;;;3.31;100.00
6196;BME280;3131;42.630;23.382;2022-12-11T22:02:15;93040.84;;;3.28;100.00
6196;BME280;3131;42.630;23.382;2022-12-11T22:04:45;93049.16;;;3.14;100.00
6196;BME280;3131;42.630;23.382;2022-12-11T22:07:15;93053.95;;;3.10;100.00
6196;BME280;3131;42.630;23.382;2022-12-11T22:12:31;93038.74;;;3.15;100.00
6196;BME280;3131;42.630;23.382;2022-12-11T22:15:00;93055.48;;;3.06;100.00
6196;BME280;3131;42.630;23.382;2022-12-11T22:20:11;93035.13;;;2.99;100.00
6196;BME280;3131;42.630;23.382;2022-12-11T22:25:19;93035.05;;;2.86;100.00
6196;BME280;3131;42.630;23.382;2022-12-11T22:30:30;93038.42;;;2.92;100.00
6196;BME280;3131;42.630;23.382;2022-12-11T22:33:00;93052.57;;;2.92;100.00
6196;BME280;3131;42.630;23.382;2022-12-11T22:35:30;93053.34;;;2.99;100.00
6196;BME280;3131;42.630;23.382;2022-12-11T22:38:00;93057.87;;;3.00;100.00
6196;BME280;3131;42.630;23.382;2022-12-11T22:40:30;93065.97;;;3.03;100.00
6196;BME280;3131;42.630;23.382;2022-12-11T22:42:59;93063.92;;;3.03;100.00
6196;BME280;3131;42.630;23.382;2022-12-11T22:48:09;93053.77;;;3.13;100.00
6196;BME280;3131;42.630;23.382;2022-12-11T22:50:40;93073.16;;;3.15;100.00
6196;BME280;3131;42.630;23.382;2022-12-11T22:53:09;93074.05;;;3.21;100.00
6196;BME280;3131;42.630;23.382;2022-12-11T22:55:39;93076.62;;;3.27;100.00
6196;BME280;3131;42.630;23.382;2022-12-11T22:58:11;93078.83;;;3.32;100.00
6196;BME280;3131;42.630;23.382;2022-12-11T23:00:40;93072.41;;;3.35;100.00
6196;BME280;3131;42.630;23.382;2022-12-11T23:03:10;93069.39;;;3.37;100.00
6196;BME280;3131;42.630;23.382;2022-12-11T23:08:20;93057.52;;;3.47;100.00
6196;BME280;3131;42.630;23.382;2022-12-11T23:10:50;93061.89;;;3.44;100.00
6196;BME280;3131;42.630;23.382;2022-12-11T23:13:19;93067.06;;;3.41;100.00
6196;BME280;3131;42.630;23.382;2022-12-11T23:15:49;93076.92;;;3.42;100.00
6196;BME280;3131;42.630;23.382;2022-12-11T23:18:19;93075.07;;;3.46;100.00
6196;BME280;3131;42.630;23.382;2022-12-11T23:20:49;93073.11;;;3.44;100.00
6196;BME280;3131;42.630;23.382;2022-12-11T23:23:18;93073.45;;;3.45;100.00
6196;BME280;3131;42.630;23.382;2022-12-11T23:25:48;93072.95;;;3.40;100.00
6196;BME280;3131;42.630;23.382;2022-12-11T23:28:17;93067.77;;;3.36;100.00
6196;BME280;3131;42.630;23.382;2022-12-11T23:30:46;93057.37;;;3.29;100.00
6196;BME280;3131;42.630;23.382;2022-12-11T23:33:16;93070.02;;;3.26;100.00
6196;BME280;3131;42.630;23.382;2022-12-11T23:35:45;93067.77;;;3.36;100.00
6196;BME280;3131;42.630;23.382;2022-12-11T23:38:16;93068.76;;;3.40;100.00
6196;BME280;3131;42.630;23.382;2022-12-11T23:40:45;93068.06;;;3.31;100.00
6196;BME280;3131;42.630;23.382;2022-12-11T23:43:15;93069.41;;;3.22;100.00
6196;BME280;3131;42.630;23.382;2022-12-11T23:45:45;93072.33;;;3.29;100.00
6196;BME280;3131;42.630;23.382;2022-12-11T23:48:15;93070.90;;;3.32;100.00
6196;BME280;3131;42.630;23.382;2022-12-11T23:50:44;93073.30;;;3.26;100.00
6196;BME280;3131;42.630;23.382;2022-12-11T23:53:14;93082.74;;;3.29;100.00
6196;BME280;3131;42.630;23.382;2022-12-11T23:55:44;93092.80;;;3.34;100.00
6196;BME280;3131;42.630;23.382;2022-12-11T23:58:13;93102.50;;;3.32;100.00
